sensor_id;sensor_type;location;lat;lon;timestamp;pressure;altitude;pressure_sealevel;temperature;humidity
52343;BME280;38277;51.972;4.624;2022-11-15T00:00:24;100970.0;;;9.0;86.5
52343;BME280;38277;51.972;4.624;2022-11-15T00:04:53;100970.0;;;9.0;87.0
52343;BME280;38277;51.972;4.624;2022-11-15T00:10:13;100950.0;;;9.0;87.0
52343;BME280;38277;51.972;4.624;2022-11-15T00:13:54;100960.0;;;9.0;87.5
52343;BME280;38277;51.972;4.624;2022-11-15T00:18:30;100960.0;;;9.0;87.5
52343;BME280;38277;51.972;4.624;2022-11-15T00:23:12;100960.0;;;9.1;88.0
52343;BME280;38277;51.972;4.624;2022-11-15T00:28:08;100950.0;;;9.1;88.0
52343;BME280;38277;51.972;4.624;2022-11-15T00:31:54;100940.0;;;9.1;88.5
52343;BME280;38277;51.972;4.624;2022-11-15T00:36:32;100950.0;;;9.1;88.5
52343;BME280;38277;51.972;4.624;2022-11-15T00:41:06;100930.0;;;9.2;89.0
52343;BME280;38277;51.972;4.624;2022-11-15T00:50:12;100920.0;;;9.2;89.5
52343;BME280;38277;51.972;4.624;2022-11-15T00:59:02;100930.0;;;9.3;89.5
52343;BME280;38277;51.972;4.624;2022-11-15T01:03:27;100930.0;;;9.3;90.0
52343;BME280;38277;51.972;4.624;2022-11-15T01:08:15;100930.0;;;9.4;90.0
52343;BME280;38277;51.972;4.624;2022-11-15T01:12:28;100920.0;;;9.4;90.0
52343;BME280;38277;51.972;4.624;2022-11-15T01:17:03;100910.0;;;9.5;90.0
52343;BME280;38277;51.972;4.624;2022-11-15T01:21:34;100900.0;;;9.5;90.0
52343;BME280;38277;51.972;4.624;2022-11-15T01:26:18;100900.0;;;9.6;90.0
52343;BME280;38277;51.972;4.624;2022-11-15T01:30:21;100900.0;;;9.6;90.0
52343;BME280;38277;51.972;4.624;2022-11-15T01:35:03;100900.0;;;9.6;90.0
52343;BME280;38277;51.972;4.624;2022-11-15T01:39:29;100890.0;;;9.6;90.5
52343;BME280;38277;51.972;4.624;2022-11-15T01:48:32;100890.0;;;9.7;90.5
52343;BME280;38277;51.972;4.624;2022-11-15T01:53:00;100880.0;;;9.8;91.0
52343;BME280;38277;51.972;4.624;2022-11-15T01:57:30;100880.0;;;9.8;91.0
52343;BME280;38277;51.972;4.624;2022-11-15T02:02:00;100870.0;;;9.9;90.5
52343;BME280;38277;51.972;4.624;2022-11-15T02:06:27;100860.0;;;9.9;90.5
52343;BME280;38277;51.972;4.624;2022-11-15T02:11:35;100850.0;;;10.0;91.0
52343;BME280;38277;51.972;4.624;2022-11-15T02:15:48;100850.0;;;10.0;91.0
52343;BME280;38277;51.972;4.624;2022-11-15T02:21:00;100840.0;;;10.1;91.0
52343;BME280;38277;51.972;4.624;2022-11-15T02:26:24;100830.0;;;10.1;91.0
52343;BME280;38277;51.972;4.624;2022-11-15T02:30:22;100830.0;;;10.2;91.0
52343;BME280;38277;51.972;4.624;2022-11-15T02:33:35;100830.0;;;10.2;91.5
52343;BME280;38277;51.972;4.624;2022-11-15T02:37:57;100830.0;;;10.3;91.5
52343;BME280;38277;51.972;4.624;2022-11-15T02:42:49;100820.0;;;10.3;91.5
52343;BME280;38277;51.972;4.624;2022-11-15T02:47:01;100810.0;;;10.4;91.5
52343;BME280;38277;51.972;4.624;2022-11-15T02:51:49;100820.0;;;10.5;92.0
52343;BME280;38277;51.972;4.624;2022-11-15T02:56:01;100820.0;;;10.5;92.0
52343;BME280;38277;51.972;4.624;2022-11-15T03:00:50;100810.0;;;10.6;92.0
52343;BME280;38277;51.972;4.624;2022-11-15T03:05:48;100810.0;;;10.6;92.0
52343;BME280;38277;51.972;4.624;2022-11-15T03:09:37;100810.0;;;10.7;92.0
52343;BME280;38277;51.972;4.624;2022-11-15T03:14:05;100810.0;;;10.8;92.5
52343;BME280;38277;51.972;4.624;2022-11-15T03:18:44;100810.0;;;10.9;92.5
52343;BME280;38277;51.972;4.624;2022-11-15T03:32:22;100810.0;;;11.1;93.0
52343;BME280;38277;51.972;4.624;2022-11-15T03:36:49;100800.0;;;11.2;93.0
52343;BME280;38277;51.972;4.624;2022-11-15T03:40:58;100800.0;;;11.3;93.0
52343;BME280;38277;51.972;4.624;2022-11-15T03:45:43;100800.0;;;11.3;93.0
52343;BME280;38277;51.972;4.624;2022-11-15T03:50:19;100810.0;;;11.4;93.0
52343;BME280;38277;51.972;4.624;2022-11-15T03:54:20;100810.0;;;11.5;93.0
52343;BME280;38277;51.972;4.624;2022-11-15T03:59:14;100800.0;;;11.5;93.0
52343;BME280;38277;51.972;4.624;2022-11-15T04:03:37;100790.0;;;11.5;93.0
52343;BME280;38277;51.972;4.624;2022-11-15T04:08:00;100790.0;;;11.5;93.0
52343;BME280;38277;51.972;4.624;2022-11-15T04:12:45;100790.0;;;11.5;93.0
52343;BME280;38277;51.972;4.624;2022-11-15T04:16:49;100780.0;;;11.6;93.5
52343;BME280;38277;51.972;4.624;2022-11-15T04:21:40;100770.0;;;11.6;93.5
52343;BME280;38277;51.972;4.624;2022-11-15T04:26:15;100760.0;;;11.7;93.5
52343;BME280;38277;51.972;4.624;2022-11-15T04:30:30;100760.0;;;11.7;93.5
52343;BME280;38277;51.972;4.624;2022-11-15T04:35:29;100760.0;;;11.8;93.5
52343;BME280;38277;51.972;4.624;2022-11-15T04:39:39;100780.0;;;11.9;93.5
52343;BME280;38277;51.972;4.624;2022-11-15T04:44:02;100780.0;;;11.9;93.5
52343;BME280;38277;51.972;4.624;2022-11-15T04:48:38;100790.0;;;12.0;93.5
52343;BME280;38277;51.972;4.624;2022-11-15T04:53:41;100790.0;;;12.0;93.0
52343;BME280;38277;51.972;4.624;2022-11-15T04:57:39;100790.0;;;12.1;93.0
52343;BME280;38277;51.972;4.624;2022-11-15T05:01:56;100800.0;;;12.1;93.0
52343;BME280;38277;51.972;4.624;2022-11-15T05:06:43;100800.0;;;12.2;93.0
52343;BME280;38277;51.972;4.624;2022-11-15T05:11:38;100810.0;;;12.2;93.0
52343;BME280;38277;51.972;4.624;2022-11-15T05:15:28;100810.0;;;12.3;93.0
52343;BME280;38277;51.972;4.624;2022-11-15T05:20:18;100810.0;;;12.3;92.5
52343;BME280;38277;51.972;4.624;2022-11-15T05:24:19;100800.0;;;12.3;92.5
52343;BME280;38277;51.972;4.624;2022-11-15T05:28:53;100800.0;;;12.4;92.0
52343;BME280;38277;51.972;4.624;2022-11-15T05:33:19;100800.0;;;12.4;92.0
52343;BME280;38277;51.972;4.624;2022-11-15T05:38:07;100790.0;;;12.4;91.5
52343;BME280;38277;51.972;4.624;2022-11-15T05:42:22;100780.0;;;12.4;91.0
52343;BME280;38277;51.972;4.624;2022-11-15T05:47:22;100790.0;;;12.4;91.0
52343;BME280;38277;51.972;4.624;2022-11-15T05:55:55;100800.0;;;12.4;90.5
52343;BME280;38277;51.972;4.624;2022-11-15T06:00:42;100800.0;;;12.4;90.5
52343;BME280;38277;51.972;4.624;2022-11-15T06:05:04;100810.0;;;12.4;90.0
52343;BME280;38277;51.972;4.624;2022-11-15T06:13:52;100820.0;;;12.4;90.0
52343;BME280;38277;51.972;4.624;2022-11-15T06:18:37;100810.0;;;12.4;89.5
52343;BME280;38277;51.972;4.624;2022-11-15T06:23:35;100820.0;;;12.3;89.5
52343;BME280;38277;51.972;4.624;2022-11-15T06:27:50;100830.0;;;12.2;88.5
52343;BME280;38277;51.972;4.624;2022-11-15T06:32:24;100840.0;;;12.1;88.0
52343;BME280;38277;51.972;4.624;2022-11-15T06:36:22;100830.0;;;12.1;88.0
52343;BME280;38277;51.972;4.624;2022-11-15T06:41:35;100830.0;;;12.0;88.0
52343;BME280;38277;51.972;4.624;2022-11-15T06:45:30;100830.0;;;12.0;88.0
52343;BME280;38277;51.972;4.624;2022-11-15T06:50:29;100820.0;;;11.9;88.0
52343;BME280;38277;51.972;4.624;2022-11-15T06:54:46;100840.0;;;11.9;88.0
52343;BME280;38277;51.972;4.624;2022-11-15T06:59:26;100840.0;;;11.9;88.0
52343;BME280;38277;51.972;4.624;2022-11-15T07:03:19;100850.0;;;11.9;88.0
52343;BME280;38277;51.972;4.624;2022-11-15T07:08:07;100840.0;;;11.9;88.0
52343;BME280;38277;51.972;4.624;2022-11-15T07:12:38;100840.0;;;11.9;88.0
52343;BME280;38277;51.972;4.624;2022-11-15T07:17:02;100840.0;;;12.0;87.5
52343;BME280;38277;51.972;4.624;2022-11-15T07:26:04;100850.0;;;12.0;87.0
52343;BME280;38277;51.972;4.624;2022-11-15T07:35:03;100830.0;;;12.0;86.5
52343;BME280;38277;51.972;4.624;2022-11-15T07:44:10;100830.0;;;12.0;85.0
52343;BME280;38277;51.972;4.624;2022-11-15T07:48:30;100840.0;;;11.9;85.0
52343;BME280;38277;51.972;4.624;2022-11-15T07:53:09;100840.0;;;11.8;85.0
52343;BME280;38277;51.972;4.624;2022-11-15T08:02:00;100820.0;;;11.6;85.0
52343;BME280;38277;51.972;4.624;2022-11-15T08:06:36;100820.0;;;11.6;85.0
52343;BME280;38277;51.972;4.624;2022-11-15T08:10:59;100810.0;;;11.6;85.0
52343;BME280;38277;51.972;4.624;2022-11-15T08:15:40;100810.0;;;11.6;85.5
52343;BME280;38277;51.972;4.624;2022-11-15T08:20:10;100800.0;;;11.6;85.5
52343;BME280;38277;51.972;4.624;2022-11-15T08:24:50;100800.0;;;11.6;85.5
52343;BME280;38277;51.972;4.624;2022-11-15T08:28:52;100800.0;;;11.7;86.0
52343;BME280;38277;51.972;4.624;2022-11-15T08:33:38;100790.0;;;11.8;85.5
52343;BME280;38277;51.972;4.624;2022-11-15T08:38:16;100790.0;;;11.8;85.5
52343;BME280;38277;51.972;4.624;2022-11-15T08:42:40;100790.0;;;11.8;85.5
52343;BME280;38277;51.972;4.624;2022-11-15T08:46:57;100780.0;;;11.8;85.5
52343;BME280;38277;51.972;4.624;2022-11-15T08:51:36;100770.0;;;11.8;85.5
52343;BME280;38277;51.972;4.624;2022-11-15T08:55:59;100770.0;;;11.9;85.5
52343;BME280;38277;51.972;4.624;2022-11-15T09:00:39;100780.0;;;11.9;85.0
52343;BME280;38277;51.972;4.624;2022-11-15T09:05:08;100760.0;;;11.9;84.5
52343;BME280;38277;51.972;4.624;2022-11-15T09:09:46;100780.0;;;11.9;84.0
52343;BME280;38277;51.972;4.624;2022-11-15T09:13:50;100780.0;;;12.0;84.0
52343;BME280;38277;51.972;4.624;2022-11-15T09:18:37;100780.0;;;12.1;83.5
52343;BME280;38277;51.972;4.624;2022-11-15T09:27:36;100770.0;;;12.2;82.5
52343;BME280;38277;51.972;4.624;2022-11-15T09:32:14;100770.0;;;12.4;81.0
52343;BME280;38277;51.972;4.624;2022-11-15T09:41:34;100770.0;;;12.6;79.5
52343;BME280;38277;51.972;4.624;2022-11-15T09:46:32;100780.0;;;12.6;78.5
52343;BME280;38277;51.972;4.624;2022-11-15T09:49:52;100780.0;;;12.7;78.0
52343;BME280;38277;51.972;4.624;2022-11-15T10:08:27;100740.0;;;13.0;76.0
52343;BME280;38277;51.972;4.624;2022-11-15T10:12:51;100740.0;;;13.1;74.5
52343;BME280;38277;51.972;4.624;2022-11-15T10:21:50;100730.0;;;13.1;74.5
52343;BME280;38277;51.972;4.624;2022-11-15T10:26:16;100720.0;;;13.1;74.5
52343;BME280;38277;51.972;4.624;2022-11-15T10:30:21;100710.0;;;13.2;73.5
52343;BME280;38277;51.972;4.624;2022-11-15T10:39:28;100700.0;;;13.3;72.5
52343;BME280;38277;51.972;4.624;2022-11-15T10:44:19;100690.0;;;13.4;72.0
52343;BME280;38277;51.972;4.624;2022-11-15T10:49:11;100690.0;;;13.4;72.0
52343;BME280;38277;51.972;4.624;2022-11-15T10:52:50;100690.0;;;13.5;71.5
52343;BME280;38277;51.972;4.624;2022-11-15T10:57:26;100690.0;;;13.5;71.0
52343;BME280;38277;51.972;4.624;2022-11-15T11:01:49;100690.0;;;13.6;70.5
52343;BME280;38277;51.972;4.624;2022-11-15T11:06:48;100670.0;;;13.7;70.0
52343;BME280;38277;51.972;4.624;2022-11-15T11:15:27;100660.0;;;14.1;69.0
52343;BME280;38277;51.972;4.624;2022-11-15T11:20:18;100640.0;;;14.2;67.5
52343;BME280;38277;51.972;4.624;2022-11-15T11:25:10;100630.0;;;14.4;66.0
52343;BME280;38277;51.972;4.624;2022-11-15T11:38:19;100600.0;;;14.6;65.5
52343;BME280;38277;51.972;4.624;2022-11-15T11:43:23;100610.0;;;14.7;65.0
52343;BME280;38277;51.972;4.624;2022-11-15T11:56:22;100570.0;;;14.9;64.0
52343;BME280;38277;51.972;4.624;2022-11-15T12:00:50;100560.0;;;14.9;63.0
52343;BME280;38277;51.972;4.624;2022-11-15T12:05:11;100560.0;;;15.0;63.0
52343;BME280;38277;51.972;4.624;2022-11-15T12:09:41;100550.0;;;15.1;62.5
52343;BME280;38277;51.972;4.624;2022-11-15T12:14:21;100530.0;;;15.2;62.0
52343;BME280;38277;51.972;4.624;2022-11-15T12:18:41;100520.0;;;15.3;61.0
52343;BME280;38277;51.972;4.624;2022-11-15T12:22:58;100520.0;;;15.4;61.5
52343;BME280;38277;51.972;4.624;2022-11-15T12:28:02;100510.0;;;15.6;61.5
52343;BME280;38277;51.972;4.624;2022-11-15T12:32:25;100510.0;;;15.7;61.0
52343;BME280;38277;51.972;4.624;2022-11-15T12:36:40;100500.0;;;15.8;59.5
52343;BME280;38277;51.972;4.624;2022-11-15T12:41:25;100490.0;;;15.9;59.5
52343;BME280;38277;51.972;4.624;2022-11-15T12:45:50;100490.0;;;16.2;58.5
52343;BME280;38277;51.972;4.624;2022-11-15T12:50:12;100480.0;;;16.5;57.5
52343;BME280;38277;51.972;4.624;2022-11-15T12:54:58;100470.0;;;16.7;55.5
52343;BME280;38277;51.972;4.624;2022-11-15T12:59:51;100460.0;;;16.8;54.5
52343;BME280;38277;51.972;4.624;2022-11-15T13:03:28;100460.0;;;16.5;55.0
52343;BME280;38277;51.972;4.624;2022-11-15T13:08:06;100460.0;;;16.3;55.5
52343;BME280;38277;51.972;4.624;2022-11-15T13:12:54;100440.0;;;16.1;56.0
52343;BME280;38277;51.972;4.624;2022-11-15T13:17:03;100440.0;;;16.0;56.5
52343;BME280;38277;51.972;4.624;2022-11-15T13:21:30;100430.0;;;15.8;57.0
52343;BME280;38277;51.972;4.624;2022-11-15T13:26:14;100420.0;;;15.7;56.5
52343;BME280;38277;51.972;4.624;2022-11-15T13:30:37;100410.0;;;15.6;56.5
52343;BME280;38277;51.972;4.624;2022-11-15T13:35:41;100410.0;;;15.3;57.0
52343;BME280;38277;51.972;4.624;2022-11-15T13:39:29;100390.0;;;15.1;57.5
52343;BME280;38277;51.972;4.624;2022-11-15T13:44:22;100390.0;;;15.0;58.0
52343;BME280;38277;51.972;4.624;2022-11-15T13:48:42;100390.0;;;14.8;58.0
52343;BME280;38277;51.972;4.624;2022-11-15T13:53:36;100380.0;;;14.7;58.5
52343;BME280;38277;51.972;4.624;2022-11-15T13:57:44;100370.0;;;14.5;59.5
52343;BME280;38277;51.972;4.624;2022-11-15T14:02:11;100360.0;;;14.4;60.0
52343;BME280;38277;51.972;4.624;2022-11-15T14:07:27;100340.0;;;14.4;60.5
52343;BME280;38277;51.972;4.624;2022-11-15T14:11:20;100330.0;;;14.3;60.5
52343;BME280;38277;51.972;4.624;2022-11-15T14:15:44;100320.0;;;14.3;60.5
52343;BME280;38277;51.972;4.624;2022-11-15T14:19:57;100310.0;;;14.3;61.0
52343;BME280;38277;51.972;4.624;2022-11-15T14:24:22;100310.0;;;14.2;61.0
52343;BME280;38277;51.972;4.624;2022-11-15T14:29:24;100300.0;;;14.2;61.5
52343;BME280;38277;51.972;4.624;2022-11-15T14:33:22;100300.0;;;14.2;61.5
52343;BME280;38277;51.972;4.624;2022-11-15T14:37:50;100290.0;;;14.2;62.0
52343;BME280;38277;51.972;4.624;2022-11-15T14:46:55;100280.0;;;14.2;62.5
52343;BME280;38277;51.972;4.624;2022-11-15T14:51:29;100280.0;;;14.1;63.0
52343;BME280;38277;51.972;4.624;2022-11-15T14:56:15;100270.0;;;14.1;63.0
52343;BME280;38277;51.972;4.624;2022-11-15T15:00:29;100260.0;;;14.1;63.5
52343;BME280;38277;51.972;4.624;2022-11-15T15:05:01;100260.0;;;14.0;64.0
52343;BME280;38277;51.972;4.624;2022-11-15T15:09:29;100250.0;;;14.0;64.5
52343;BME280;38277;51.972;4.624;2022-11-15T15:13:58;100250.0;;;13.9;65.0
52343;BME280;38277;51.972;4.624;2022-11-15T15:27:46;100240.0;;;13.8;65.5
52343;BME280;38277;51.972;4.624;2022-11-15T15:32:10;100230.0;;;13.8;66.0
52343;BME280;38277;51.972;4.624;2022-11-15T15:36:34;100220.0;;;13.9;66.0
52343;BME280;38277;51.972;4.624;2022-11-15T15:41:15;100220.0;;;13.8;66.5
52343;BME280;38277;51.972;4.624;2022-11-15T15:45:41;100210.0;;;13.8;67.5
52343;BME280;38277;51.972;4.624;2022-11-15T15:49:55;100220.0;;;13.8;69.0
52343;BME280;38277;51.972;4.624;2022-11-15T15:54:46;100210.0;;;13.7;70.0
52343;BME280;38277;51.972;4.624;2022-11-15T15:59:04;100220.0;;;13.7;70.5
52343;BME280;38277;51.972;4.624;2022-11-15T16:03:43;100220.0;;;13.6;71.5
52343;BME280;38277;51.972;4.624;2022-11-15T16:08:19;100210.0;;;13.5;72.5
52343;BME280;38277;51.972;4.624;2022-11-15T16:12:21;100210.0;;;13.4;74.0
52343;BME280;38277;51.972;4.624;2022-11-15T16:16:53;100210.0;;;13.3;74.5
52343;BME280;38277;51.972;4.624;2022-11-15T16:21:48;100200.0;;;13.2;75.5
52343;BME280;38277;51.972;4.624;2022-11-15T16:25:56;100210.0;;;13.1;76.0
52343;BME280;38277;51.972;4.624;2022-11-15T16:35:18;100190.0;;;13.0;77.5
52343;BME280;38277;51.972;4.624;2022-11-15T16:39:32;100200.0;;;12.9;78.5
52343;BME280;38277;51.972;4.624;2022-11-15T16:43:52;100200.0;;;12.9;79.0
52343;BME280;38277;51.972;4.624;2022-11-15T16:53:06;100180.0;;;12.8;81.0
52343;BME280;38277;51.972;4.624;2022-11-15T16:57:51;100190.0;;;12.8;81.5
52343;BME280;38277;51.972;4.624;2022-11-15T17:06:40;100180.0;;;12.7;83.0
52343;BME280;38277;51.972;4.624;2022-11-15T17:11:03;100180.0;;;12.7;84.0
52343;BME280;38277;51.972;4.624;2022-11-15T17:20:22;100170.0;;;12.7;85.5
52343;BME280;38277;51.972;4.624;2022-11-15T17:33:52;100170.0;;;12.6;87.0
52343;BME280;38277;51.972;4.624;2022-11-15T17:38:36;100170.0;;;12.6;87.0
52343;BME280;38277;51.972;4.624;2022-11-15T17:47:35;100160.0;;;12.6;87.5
52343;BME280;38277;51.972;4.624;2022-11-15T17:51:28;100150.0;;;12.7;87.5
52343;BME280;38277;51.972;4.624;2022-11-15T17:56:19;100160.0;;;12.7;87.5
52343;BME280;38277;51.972;4.624;2022-11-15T19:08:14;100120.0;;;12.9;89.5
52343;BME280;38277;51.972;4.624;2022-11-15T19:17:07;100110.0;;;12.9;90.0
52343;BME280;38277;51.972;4.624;2022-11-15T19:22:05;100100.0;;;12.9;90.0
52343;BME280;38277;51.972;4.624;2022-11-15T19:35:01;100100.0;;;12.9;90.5
52343;BME280;38277;51.972;4.624;2022-11-15T20:15:26;100070.0;;;13.0;91.0
52343;BME280;38277;51.972;4.624;2022-11-15T20:20:11;100070.0;;;13.1;91.0
52343;BME280;38277;51.972;4.624;2022-11-15T20:25:22;100070.0;;;13.1;91.0
52343;BME280;38277;51.972;4.624;2022-11-15T20:28:50;100070.0;;;13.1;91.0
52343;BME280;38277;51.972;4.624;2022-11-15T20:33:21;100080.0;;;13.1;91.0
52343;BME280;38277;51.972;4.624;2022-11-15T20:38:14;100080.0;;;13.1;91.0
52343;BME280;38277;51.972;4.624;2022-11-15T20:42:47;100070.0;;;13.2;91.0
52343;BME280;38277;51.972;4.624;2022-11-15T20:46:54;100070.0;;;13.2;91.0
52343;BME280;38277;51.972;4.624;2022-11-15T20:51:37;100060.0;;;13.2;91.0
52343;BME280;38277;51.972;4.624;2022-11-15T20:56:21;100060.0;;;13.2;91.0
52343;BME280;38277;51.972;4.624;2022-11-15T21:00:41;100060.0;;;13.3;91.0
52343;BME280;38277;51.972;4.624;2022-11-15T21:04:51;100050.0;;;13.2;91.0
52343;BME280;38277;51.972;4.624;2022-11-15T21:09:38;100030.0;;;13.2;91.0
52343;BME280;38277;51.972;4.624;2022-11-15T21:13:50;100030.0;;;13.2;91.0
52343;BME280;38277;51.972;4.624;2022-11-15T21:18:38;100050.0;;;13.2;91.0
52343;BME280;38277;51.972;4.624;2022-11-15T21:23:18;100040.0;;;13.2;91.0
52343;BME280;38277;51.972;4.624;2022-11-15T21:27:41;100030.0;;;13.2;91.0
52343;BME280;38277;51.972;4.624;2022-11-15T21:32:29;100020.0;;;13.2;91.0
52343;BME280;38277;51.972;4.624;2022-11-15T21:36:46;100010.0;;;13.3;91.0
52343;BME280;38277;51.972;4.624;2022-11-15T21:41:14;100020.0;;;13.3;91.0
52343;BME280;38277;51.972;4.624;2022-11-15T21:45:20;100010.0;;;13.3;91.5
52343;BME280;38277;51.972;4.624;2022-11-15T21:50:14;100010.0;;;13.3;91.5
52343;BME280;38277;51.972;4.624;2022-11-15T21:54:29;100010.0;;;13.3;91.5
52343;BME280;38277;51.972;4.624;2022-11-15T21:59:04;100010.0;;;13.4;91.5
52343;BME280;38277;51.972;4.624;2022-11-15T22:03:35;100000.0;;;13.4;91.5
52343;BME280;38277;51.972;4.624;2022-11-15T22:08:07;100000.0;;;13.5;91.5
52343;BME280;38277;51.972;4.624;2022-11-15T22:12:29;100000.0;;;13.5;91.5
52343;BME280;38277;51.972;4.624;2022-11-15T22:17:24;99980.0;;;13.5;91.0
52343;BME280;38277;51.972;4.624;2022-11-15T22:21:41;99970.0;;;13.5;91.5
52343;BME280;38277;51.972;4.624;2022-11-15T22:26:09;99970.0;;;13.5;91.0
52343;BME280;38277;51.972;4.624;2022-11-15T22:30:25;99980.0;;;13.5;91.0
52343;BME280;38277;51.972;4.624;2022-11-15T22:34:49;99970.0;;;13.5;91.5
52343;BME280;38277;51.972;4.624;2022-11-15T22:44:01;99960.0;;;13.5;91.5
52343;BME280;38277;51.972;4.624;2022-11-15T22:48:40;99970.0;;;13.5;91.5
52343;BME280;38277;51.972;4.624;2022-11-15T22:53:58;99960.0;;;13.5;92.0
52343;BME280;38277;51.972;4.624;2022-11-15T23:19:54;99960.0;;;13.5;93.5
52343;BME280;38277;51.972;4.624;2022-11-15T23:24:36;99950.0;;;13.5;93.5
52343;BME280;38277;51.972;4.624;2022-11-15T23:29:17;99950.0;;;13.5;93.5
